createdAt,value
2023-05-01T00:00:05.475Z,30.29
2023-05-01T00:01:04.545Z,30.34
2023-05-01T00:02:04.570Z,30.30
2023-05-01T00:03:04.734Z,30.26
2023-05-01T00:04:04.992Z,30.30
2023-05-01T00:05:04.660Z,30.27
2023-05-01T00:06:04.684Z,30.30
2023-05-01T00:07:04.713Z,30.34
2023-05-01T00:08:04.706Z,30.29
2023-05-01T00:09:04.754Z,30.29
2023-05-01T00:10:04.755Z,30.27
2023-05-01T00:11:04.775Z,30.26
2023-05-01T00:12:04.795Z,30.29
2023-05-01T00:13:04.856Z,30.29
2023-05-01T00:14:04.818Z,30.31
2023-05-01T00:15:04.856Z,30.28
2023-05-01T00:16:04.894Z,30.30
2023-05-01T00:17:04.867Z,30.28
2023-05-01T00:18:04.934Z,30.26
2023-05-01T00:19:04.918Z,30.29
2023-05-01T00:20:04.948Z,30.30
2023-05-01T00:21:04.976Z,30.35
2023-05-01T00:22:05.004Z,30.33
2023-05-01T00:23:04.985Z,30.26
2023-05-01T00:24:05.030Z,30.30
2023-05-01T00:25:05.030Z,30.28
2023-05-01T00:26:05.032Z,30.29
2023-05-01T00:27:05.080Z,30.24
2023-05-01T00:28:05.071Z,30.31
2023-05-01T00:29:05.109Z,30.31
2023-05-01T00:30:05.092Z,30.27
2023-05-01T00:31:05.107Z,30.28
2023-05-01T00:32:05.228Z,30.25
2023-05-01T00:33:05.140Z,30.29
2023-05-01T00:34:05.144Z,30.34
2023-05-01T00:35:05.185Z,30.28
2023-05-01T00:36:05.163Z,30.28
2023-05-01T00:37:05.203Z,30.31
2023-05-01T00:38:05.196Z,30.32
2023-05-01T00:39:05.230Z,30.26
2023-05-01T00:40:05.288Z,30.26
2023-05-01T00:41:05.281Z,30.32
2023-05-01T00:42:05.278Z,30.31
2023-05-01T00:43:05.308Z,30.28
2023-05-01T00:44:05.343Z,30.31
2023-05-01T00:45:05.354Z,30.26
2023-05-01T00:46:05.425Z,30.31
2023-05-01T00:47:05.412Z,30.23
2023-05-01T00:48:05.476Z,30.26
2023-05-01T00:49:05.456Z,30.29
2023-05-01T00:50:05.484Z,30.27
2023-05-01T00:51:05.526Z,30.28
2023-05-01T00:52:05.541Z,30.24
2023-05-01T00:53:05.554Z,30.26
2023-05-01T00:54:05.593Z,30.24
2023-05-01T00:55:05.609Z,30.23
2023-05-01T00:56:05.688Z,30.27
2023-05-01T00:57:05.701Z,30.26
2023-05-01T00:58:05.725Z,30.25
2023-05-01T00:59:05.774Z,30.28
2023-05-01T01:00:05.806Z,30.24
2023-05-01T01:01:05.879Z,30.25
2023-05-01T01:02:05.857Z,30.27
2023-05-01T01:03:05.957Z,30.26
2023-05-01T01:04:05.934Z,30.25
2023-05-01T01:05:06.045Z,30.28
2023-05-01T01:06:05.944Z,30.29
2023-05-01T01:07:05.982Z,30.28
2023-05-01T01:08:06.018Z,30.25
2023-05-01T01:09:05.997Z,30.25
2023-05-01T01:10:06.058Z,30.28
2023-05-01T01:11:06.069Z,30.21
2023-05-01T01:12:06.109Z,30.25
2023-05-01T01:13:06.161Z,30.24
2023-05-01T01:14:06.229Z,30.23
2023-05-01T01:15:06.223Z,30.22
2023-05-01T01:16:06.252Z,30.26
2023-05-01T01:17:06.409Z,30.28
2023-05-01T01:18:06.366Z,30.28
2023-05-01T01:19:06.345Z,30.26
2023-05-01T01:20:06.387Z,30.26
2023-05-01T01:21:06.375Z,30.31
2023-05-01T01:22:06.435Z,30.25
2023-05-01T01:23:06.440Z,30.29
2023-05-01T01:24:06.496Z,30.26
2023-05-01T01:25:06.477Z,30.26
2023-05-01T01:26:06.545Z,30.28
2023-05-01T01:27:06.565Z,30.31
2023-05-01T01:28:06.609Z,30.26
2023-05-01T01:29:06.645Z,30.31
2023-05-01T01:30:06.642Z,30.22
2023-05-01T01:31:06.717Z,30.26
2023-05-01T01:32:06.747Z,30.28
2023-05-01T01:33:06.798Z,30.28
2023-05-01T01:34:06.764Z,30.26
2023-05-01T01:35:06.804Z,30.22
2023-05-01T01:36:06.856Z,30.25
2023-05-01T01:37:06.878Z,30.22
2023-05-01T01:38:06.913Z,30.26
2023-05-01T01:39:06.971Z,30.26
2023-05-01T01:40:06.978Z,30.25
2023-05-01T01:41:07.027Z,30.28
2023-05-01T01:42:07.055Z,30.30
2023-05-01T01:43:07.096Z,30.26
2023-05-01T01:44:07.110Z,30.28
2023-05-01T01:45:07.173Z,30.26
2023-05-01T01:46:07.176Z,30.27
2023-05-01T01:47:07.222Z,30.20
2023-05-01T01:48:07.282Z,30.28
2023-05-01T01:49:07.294Z,30.29
2023-05-01T01:50:07.320Z,30.28
2023-05-01T01:51:07.352Z,30.28
2023-05-01T01:52:07.357Z,30.22
2023-05-01T01:53:07.382Z,30.23
2023-05-01T01:54:07.420Z,30.25
2023-05-01T01:55:07.446Z,30.28
2023-05-01T01:56:07.483Z,30.27
2023-05-01T01:57:07.541Z,30.23
2023-05-01T01:58:08.136Z,30.26
2023-05-01T01:59:07.606Z,30.25
2023-05-01T02:00:07.652Z,30.25
2023-05-01T02:01:07.654Z,30.25
2023-05-01T02:02:07.730Z,30.27
2023-05-01T02:03:07.810Z,30.26
2023-05-01T02:04:07.920Z,30.25
2023-05-01T02:05:07.808Z,30.26
2023-05-01T02:06:08.022Z,30.26
2023-05-01T02:07:07.868Z,30.23
2023-05-01T02:08:07.873Z,30.26
2023-05-01T02:09:07.878Z,30.25
2023-05-01T02:10:07.910Z,30.27
2023-05-01T02:11:07.957Z,30.27
2023-05-01T02:12:07.968Z,30.23
2023-05-01T02:13:08.042Z,30.25
2023-05-01T02:14:08.015Z,30.22
2023-05-01T02:15:08.080Z,30.26
2023-05-01T02:16:08.101Z,30.25
2023-05-01T02:17:08.150Z,30.27
2023-05-01T02:18:08.231Z,30.26
2023-05-01T02:19:08.198Z,30.24
2023-05-01T02:20:08.250Z,30.30
2023-05-01T02:21:08.246Z,30.22
2023-05-01T02:22:08.297Z,30.22
2023-05-01T02:23:08.354Z,30.26
2023-05-01T02:24:08.372Z,30.23
2023-05-01T02:25:08.403Z,30.26
2023-05-01T02:26:08.469Z,30.25
2023-05-01T02:27:08.492Z,30.27
2023-05-01T02:28:08.510Z,30.26
2023-05-01T02:29:08.561Z,30.26
2023-05-01T02:30:08.611Z,30.20
2023-05-01T02:31:08.649Z,30.23
2023-05-01T02:32:08.747Z,30.27
2023-05-01T02:33:08.806Z,30.27
2023-05-01T02:34:08.779Z,30.26
2023-05-01T02:35:08.779Z,30.26
2023-05-01T02:36:08.817Z,30.22
2023-05-01T02:37:08.881Z,30.23
2023-05-01T02:38:08.886Z,30.23
2023-05-01T02:39:08.935Z,30.26
2023-05-01T02:40:08.963Z,30.24
2023-05-01T02:41:09.017Z,30.21
2023-05-01T02:42:09.065Z,30.30
2023-05-01T02:43:09.162Z,30.24
2023-05-01T02:44:09.131Z,30.26
2023-05-01T02:45:10.718Z,30.24
2023-05-01T02:46:09.251Z,30.22
2023-05-01T02:47:09.296Z,30.23
2023-05-01T02:48:09.411Z,30.27
2023-05-01T02:49:09.339Z,30.20
2023-05-01T02:50:09.366Z,30.23
2023-05-01T02:51:09.404Z,30.26
2023-05-01T02:52:09.456Z,30.20
2023-05-01T02:53:09.496Z,30.21
2023-05-01T02:54:09.513Z,30.21
2023-05-01T02:55:09.593Z,30.23
2023-05-01T02:56:09.607Z,30.24
2023-05-01T02:57:09.667Z,30.26
2023-05-01T02:58:09.700Z,30.24
2023-05-01T02:59:09.736Z,30.24
2023-05-01T03:00:09.822Z,30.20
2023-05-01T03:01:09.854Z,30.26
2023-05-01T03:02:09.884Z,30.23
2023-05-01T03:03:09.992Z,30.20
2023-05-01T03:04:09.978Z,30.23
2023-05-01T03:05:09.989Z,30.23
2023-05-01T03:06:10.080Z,30.23
2023-05-01T03:07:10.077Z,30.28
2023-05-01T03:08:10.160Z,30.24
2023-05-01T03:09:10.170Z,30.27
2023-05-01T03:10:10.200Z,30.20
2023-05-01T03:11:10.262Z,30.21
2023-05-01T03:12:10.297Z,30.17
2023-05-01T03:13:10.328Z,30.23
2023-05-01T03:14:10.376Z,30.25
2023-05-01T03:15:10.434Z,30.27
2023-05-01T03:16:10.466Z,30.22
2023-05-01T03:17:10.501Z,30.21
2023-05-01T03:18:10.567Z,30.25
2023-05-01T03:19:10.576Z,30.27
2023-05-01T03:20:10.662Z,30.22
2023-05-01T03:21:10.676Z,30.21
2023-05-01T03:22:10.720Z,30.24
2023-05-01T03:23:10.749Z,30.25
2023-05-01T03:24:10.794Z,30.30
2023-05-01T03:25:10.865Z,30.21
2023-05-01T03:26:10.857Z,30.23
2023-05-01T03:27:10.940Z,30.23
2023-05-01T03:28:10.972Z,30.20
2023-05-01T03:29:11.038Z,30.23
2023-05-01T03:30:11.059Z,30.24
2023-05-01T03:31:11.108Z,30.21
2023-05-01T03:32:11.178Z,30.28
2023-05-01T03:33:11.281Z,30.22
2023-05-01T03:34:11.228Z,30.24
2023-05-01T03:35:11.339Z,30.22
2023-05-01T03:36:11.313Z,30.26
2023-05-01T03:37:11.338Z,30.21
2023-05-01T03:38:11.367Z,30.25
2023-05-01T03:39:11.424Z,30.22
2023-05-01T03:40:11.478Z,30.24
2023-05-01T03:41:11.504Z,30.22
2023-05-01T03:42:11.583Z,30.18
2023-05-01T03:43:11.625Z,30.25
2023-05-01T03:44:11.612Z,30.21
2023-05-01T03:45:11.700Z,30.20
2023-05-01T03:46:11.749Z,30.20
2023-05-01T03:47:11.769Z,30.23
2023-05-01T03:48:11.889Z,30.18
2023-05-01T03:49:11.830Z,30.21
2023-05-01T03:50:11.894Z,30.27
2023-05-01T03:51:11.935Z,30.21
2023-05-01T03:52:12.010Z,30.19
2023-05-01T03:53:12.030Z,30.20
2023-05-01T03:54:12.078Z,30.22
2023-05-01T03:55:12.147Z,30.24
2023-05-01T03:56:12.160Z,30.19
2023-05-01T03:57:12.204Z,30.24
2023-05-01T03:58:12.260Z,30.21
2023-05-01T03:59:12.274Z,30.18
2023-05-01T04:00:12.314Z,30.20
2023-05-01T04:01:12.352Z,30.21
2023-05-01T04:02:12.448Z,30.18
2023-05-01T04:03:12.493Z,30.24
2023-05-01T04:04:12.571Z,30.15
2023-05-01T04:05:12.530Z,30.21
2023-05-01T04:06:12.622Z,30.21
2023-05-01T04:07:12.631Z,30.19
2023-05-01T04:08:12.703Z,30.19
2023-05-01T04:09:12.738Z,30.17
2023-05-01T04:10:12.786Z,30.21
2023-05-01T04:11:12.830Z,30.21
2023-05-01T04:12:12.876Z,30.15
2023-05-01T04:13:12.932Z,30.22
2023-05-01T04:14:12.978Z,30.18
2023-05-01T04:15:14.904Z,30.20
2023-05-01T04:16:13.150Z,30.25
2023-05-01T04:17:13.154Z,30.20
2023-05-01T04:18:13.290Z,30.20
2023-05-01T04:19:13.252Z,30.18
2023-05-01T04:20:13.312Z,30.21
2023-05-01T04:21:13.365Z,30.19
2023-05-01T04:22:13.393Z,30.19
2023-05-01T04:23:13.458Z,30.22
2023-05-01T04:24:13.506Z,30.19
2023-05-01T04:25:13.555Z,30.17
2023-05-01T04:26:13.604Z,30.22
2023-05-01T04:27:13.651Z,30.19
2023-05-01T04:28:13.705Z,30.12
2023-05-01T04:29:13.748Z,30.21
2023-05-01T04:30:13.797Z,30.22
2023-05-01T04:31:13.859Z,30.17
2023-05-01T04:32:13.888Z,30.24
2023-05-01T04:33:13.917Z,30.24
2023-05-01T04:34:13.951Z,30.15
2023-05-01T04:35:14.022Z,30.17
2023-05-01T04:36:14.041Z,30.21
2023-05-01T04:37:14.241Z,30.17
2023-05-01T04:38:14.171Z,30.15
2023-05-01T04:39:14.222Z,30.19
2023-05-01T04:40:14.232Z,30.19
2023-05-01T04:41:14.283Z,30.18
2023-05-01T04:42:14.326Z,30.18
2023-05-01T04:43:14.374Z,30.20
2023-05-01T04:44:14.438Z,30.21
2023-05-01T04:45:14.452Z,30.21
2023-05-01T04:46:14.559Z,30.18
2023-05-01T04:47:14.552Z,30.19
2023-05-01T04:48:14.627Z,30.18
2023-05-01T04:49:14.744Z,30.18
2023-05-01T04:50:14.716Z,30.19
2023-05-01T04:51:14.739Z,30.22
2023-05-01T04:52:15.732Z,30.18
2023-05-01T04:53:14.811Z,30.17
2023-05-01T04:54:14.854Z,30.17
2023-05-01T04:55:14.933Z,30.16
2023-05-01T04:56:14.946Z,30.14
2023-05-01T04:57:15.010Z,30.17
2023-05-01T04:58:15.045Z,30.12
2023-05-01T04:59:15.095Z,30.14
2023-05-01T05:00:15.134Z,30.15
2023-05-01T05:01:15.213Z,30.17
2023-05-01T05:02:15.284Z,30.14
2023-05-01T05:03:15.416Z,30.19
2023-05-01T05:04:15.330Z,30.17
2023-05-01T05:05:15.352Z,30.20
2023-05-01T05:06:15.432Z,30.13
2023-05-01T05:07:15.429Z,30.18
2023-05-01T05:08:15.464Z,30.14
2023-05-01T05:09:16.950Z,30.18
2023-05-01T05:10:15.520Z,30.17
2023-05-01T05:11:15.522Z,30.15
2023-05-01T05:12:15.531Z,30.14
2023-05-01T05:13:15.471Z,30.16
2023-05-01T05:14:15.462Z,30.14
2023-05-01T05:15:15.482Z,30.17
2023-05-01T05:16:15.479Z,30.13
2023-05-01T05:17:15.466Z,30.09
2023-05-01T05:18:15.521Z,30.08
2023-05-01T05:19:15.477Z,30.07
2023-05-01T05:20:15.456Z,30.08
2023-05-01T05:21:15.476Z,30.10
2023-05-01T05:22:15.411Z,30.13
2023-05-01T05:23:15.434Z,30.08
2023-05-01T05:24:15.457Z,30.11
2023-05-01T05:25:15.388Z,30.14
2023-05-01T05:26:15.387Z,30.09
2023-05-01T05:27:15.430Z,30.13
2023-05-01T05:28:15.413Z,30.07
2023-05-01T05:29:15.404Z,30.09
2023-05-01T05:30:15.371Z,30.09
2023-05-01T05:31:15.397Z,30.10
2023-05-01T05:32:15.418Z,30.11
2023-05-01T05:33:15.465Z,30.10
2023-05-01T05:34:15.350Z,30.04
2023-05-01T05:35:15.357Z,30.06
2023-05-01T05:36:15.349Z,30.06
2023-05-01T05:37:15.339Z,30.06
2023-05-01T05:38:15.326Z,30.09
2023-05-01T05:39:15.337Z,30.09
2023-05-01T05:40:15.341Z,30.06
2023-05-01T05:41:15.364Z,30.04
2023-05-01T05:42:15.776Z,30.10
2023-05-01T05:43:15.287Z,30.06
2023-05-01T05:44:15.279Z,30.03
2023-05-01T05:45:15.265Z,30.09
2023-05-01T05:46:15.303Z,30.10
2023-05-01T05:47:15.284Z,30.07
2023-05-01T05:48:15.368Z,30.03
2023-05-01T05:49:15.273Z,30.10
2023-05-01T05:50:15.261Z,30.07
2023-05-01T05:51:15.249Z,30.07
2023-05-01T05:52:15.265Z,30.07
2023-05-01T05:53:15.246Z,30.06
2023-05-01T05:54:15.207Z,30.03
2023-05-01T05:55:15.213Z,30.04
2023-05-01T05:56:15.209Z,30.03
2023-05-01T05:57:15.200Z,30.08
2023-05-01T05:58:15.249Z,30.06
2023-05-01T05:59:17.301Z,30.06
2023-05-01T06:00:15.371Z,30.04
2023-05-01T06:01:15.401Z,30.01
2023-05-01T06:02:15.448Z,30.02
2023-05-01T06:03:15.536Z,30.08
2023-05-01T06:04:15.490Z,29.99
2023-05-01T06:05:15.586Z,30.03
2023-05-01T06:06:15.607Z,30.06
2023-05-01T06:07:15.636Z,30.01
2023-05-01T06:08:15.655Z,30.02
2023-05-01T06:09:15.702Z,30.02
2023-05-01T06:10:15.713Z,30.02
2023-05-01T06:11:15.788Z,30.01
2023-05-01T06:12:15.814Z,30.01
2023-05-01T06:13:15.892Z,29.99
2023-05-01T06:14:15.884Z,29.98
2023-05-01T06:15:15.942Z,30.02
2023-05-01T06:16:16.018Z,30.01
2023-05-01T06:17:16.041Z,29.97
2023-05-01T06:18:16.261Z,29.98
2023-05-01T06:19:16.193Z,29.97
2023-05-01T06:20:16.190Z,29.94
2023-05-01T06:21:16.194Z,29.97
2023-05-01T06:22:16.263Z,29.93
2023-05-01T06:23:16.316Z,29.94
2023-05-01T06:24:16.338Z,29.93
2023-05-01T06:25:16.388Z,29.93
2023-05-01T06:26:16.419Z,29.94
2023-05-01T06:27:16.424Z,29.91
2023-05-01T06:28:16.475Z,29.90
2023-05-01T06:29:16.542Z,29.93
2023-05-01T06:30:16.523Z,29.93
2023-05-01T06:31:16.563Z,29.90
2023-05-01T06:32:16.583Z,29.91
2023-05-01T06:33:16.666Z,29.89
2023-05-01T06:34:16.665Z,29.88
2023-05-01T06:35:16.702Z,29.90
2023-05-01T06:36:16.748Z,29.90
2023-05-01T06:37:16.776Z,29.90
2023-05-01T06:38:16.805Z,29.83
2023-05-01T06:39:16.841Z,29.90
2023-05-01T06:40:16.867Z,29.90
2023-05-01T06:41:16.897Z,29.92
2023-05-01T06:42:16.955Z,29.87
2023-05-01T06:43:17.792Z,29.83
2023-05-01T06:44:17.008Z,29.88
2023-05-01T06:45:17.028Z,29.89
2023-05-01T06:46:17.116Z,29.90
2023-05-01T06:47:17.096Z,29.88
2023-05-01T06:48:17.138Z,29.89
2023-05-01T06:49:17.135Z,29.88
2023-05-01T06:50:17.198Z,29.90
2023-05-01T06:51:17.206Z,29.86
2023-05-01T06:52:17.244Z,29.90
2023-05-01T06:53:17.269Z,29.86
2023-05-01T06:54:17.309Z,29.89
2023-05-01T06:55:17.364Z,29.85
2023-05-01T06:56:17.378Z,29.89
2023-05-01T06:57:17.430Z,29.89
2023-05-01T06:58:23.844Z,29.89
2023-05-01T06:59:18.426Z,29.86
2023-05-01T07:00:17.531Z,29.88
2023-05-01T07:01:17.457Z,29.85
2023-05-01T07:02:17.490Z,29.88
2023-05-01T07:03:17.578Z,29.88
2023-05-01T07:04:17.414Z,29.88
2023-05-01T07:05:17.433Z,29.89
2023-05-01T07:06:17.475Z,29.88
2023-05-01T07:07:17.424Z,29.88
2023-05-01T07:08:17.400Z,29.83
2023-05-01T07:09:17.405Z,29.82
2023-05-01T07:10:17.374Z,29.86
2023-05-01T07:11:17.355Z,29.86
2023-05-01T07:12:17.376Z,29.85
2023-05-01T07:13:17.493Z,29.85
2023-05-01T07:14:17.482Z,29.85
2023-05-01T07:15:17.505Z,29.91
2023-05-01T07:16:17.574Z,29.86
2023-05-01T07:17:17.589Z,29.88
2023-05-01T07:18:17.601Z,29.82
2023-05-01T07:19:17.636Z,29.89
2023-05-01T07:20:17.662Z,29.81
2023-05-01T07:21:17.698Z,29.86
2023-05-01T07:22:17.728Z,29.89
2023-05-01T07:23:17.763Z,29.89
2023-05-01T07:24:17.797Z,29.88
2023-05-01T07:25:17.817Z,29.85
2023-05-01T07:26:17.870Z,29.85
2023-05-01T07:27:17.902Z,29.84
2023-05-01T07:28:17.930Z,29.84
2023-05-01T07:29:17.975Z,29.84
2023-05-01T07:30:17.990Z,29.84
2023-05-01T07:31:18.031Z,29.81
2023-05-01T07:32:18.192Z,29.85
2023-05-01T07:33:18.164Z,29.81
2023-05-01T07:34:18.090Z,29.82
2023-05-01T07:35:18.163Z,29.75
2023-05-01T07:36:18.205Z,29.84
2023-05-01T07:37:18.234Z,29.80
2023-05-01T07:38:18.297Z,29.81
2023-05-01T07:39:18.304Z,29.77
2023-05-01T07:40:18.312Z,29.81
2023-05-01T07:41:18.368Z,29.81
2023-05-01T07:42:18.398Z,29.80
2023-05-01T07:43:19.314Z,29.80
2023-05-01T07:44:18.430Z,29.86
2023-05-01T07:45:18.463Z,29.77
2023-05-01T07:46:18.493Z,29.78
2023-05-01T07:47:18.500Z,29.82
2023-05-01T07:48:18.541Z,29.83
2023-05-01T07:49:18.558Z,29.84
2023-05-01T07:50:18.590Z,29.80
2023-05-01T07:51:18.623Z,29.80
2023-05-01T07:52:18.674Z,29.87
2023-05-01T07:53:18.645Z,29.83
2023-05-01T07:54:18.696Z,29.80
2023-05-01T07:55:18.737Z,29.76
2023-05-01T07:56:18.727Z,29.83
2023-05-01T07:57:18.750Z,29.76
2023-05-01T07:58:18.786Z,29.77
2023-05-01T07:59:18.787Z,29.75
2023-05-01T08:00:18.802Z,29.80
2023-05-01T08:01:18.925Z,29.79
2023-05-01T08:02:18.932Z,29.77
2023-05-01T08:03:19.008Z,29.73
2023-05-01T08:04:18.984Z,29.79
2023-05-01T08:05:18.923Z,29.77
2023-05-01T08:06:18.993Z,29.71
2023-05-01T08:07:18.984Z,29.70
2023-05-01T08:08:18.979Z,29.72
2023-05-01T08:09:19.009Z,29.69
2023-05-01T08:10:19.019Z,29.71
2023-05-01T08:11:19.060Z,29.69
2023-05-01T08:12:19.041Z,29.66
2023-05-01T08:13:19.038Z,29.66
2023-05-01T08:14:19.086Z,29.58
2023-05-01T08:15:19.058Z,29.68
2023-05-01T08:16:21.157Z,29.65
2023-05-01T08:17:19.460Z,29.61
2023-05-01T08:18:19.342Z,29.68
2023-05-01T08:19:19.369Z,29.66
2023-05-01T08:20:19.376Z,29.63
2023-05-01T08:21:19.364Z,29.60
2023-05-01T08:22:19.412Z,29.63
2023-05-01T08:23:19.401Z,29.63
2023-05-01T08:24:19.417Z,29.55
2023-05-01T08:25:19.401Z,29.60
2023-05-01T08:26:20.788Z,29.59
2023-05-01T08:27:19.456Z,29.59
2023-05-01T08:28:19.437Z,29.56
2023-05-01T08:29:19.445Z,29.60
2023-05-01T08:30:19.466Z,29.57
2023-05-01T08:31:19.658Z,29.57
2023-05-01T08:32:19.490Z,29.53
2023-05-01T08:33:19.520Z,29.56
2023-05-01T08:34:19.477Z,29.60
2023-05-01T08:35:19.502Z,29.57
2023-05-01T08:36:21.252Z,29.55
2023-05-01T08:37:19.536Z,29.55
2023-05-01T08:38:19.533Z,29.50
2023-05-01T08:39:19.527Z,29.55
2023-05-01T08:40:19.524Z,29.53
2023-05-01T08:41:19.537Z,29.58
2023-05-01T08:42:19.550Z,29.52
2023-05-01T08:43:19.568Z,29.55
2023-05-01T08:44:19.558Z,29.53
2023-05-01T08:45:19.568Z,29.53
2023-05-01T08:46:19.660Z,29.50
2023-05-01T08:47:19.608Z,29.53
2023-05-01T08:48:19.586Z,29.48
2023-05-01T08:49:19.584Z,29.48
2023-05-01T08:50:19.631Z,29.52
2023-05-01T08:51:21.179Z,29.48
2023-05-01T08:52:19.641Z,29.47
2023-05-01T08:53:19.639Z,29.45
2023-05-01T08:54:19.640Z,29.47
2023-05-01T08:55:19.640Z,29.47
2023-05-01T08:56:19.625Z,29.45
2023-05-01T08:57:19.646Z,29.44
2023-05-01T08:58:19.638Z,29.48
2023-05-01T08:59:19.592Z,29.44
2023-05-01T09:00:19.655Z,29.44
2023-05-01T09:01:19.647Z,29.41
2023-05-01T09:02:19.659Z,29.44
2023-05-01T09:03:19.740Z,29.40
2023-05-01T09:04:19.658Z,29.44
2023-05-01T09:05:19.631Z,29.47
2023-05-01T09:06:19.620Z,29.42
2023-05-01T09:07:19.588Z,29.40
2023-05-01T09:08:19.601Z,29.42
2023-05-01T09:09:19.573Z,29.47
2023-05-01T09:10:19.570Z,29.44
2023-05-01T09:11:19.576Z,29.43
2023-05-01T09:12:19.573Z,29.43
2023-05-01T09:13:19.566Z,29.43
2023-05-01T09:14:19.570Z,29.44
2023-05-01T09:15:19.573Z,29.44
2023-05-01T09:16:19.597Z,29.40
2023-05-01T09:17:19.624Z,29.42
2023-05-01T09:18:19.743Z,29.42
2023-05-01T09:19:19.538Z,29.45
2023-05-01T09:20:19.533Z,29.37
2023-05-01T09:21:19.510Z,29.40
2023-05-01T09:22:19.534Z,29.40
2023-05-01T09:23:19.525Z,29.40
2023-05-01T09:24:19.508Z,29.43
2023-05-01T09:25:19.518Z,29.45
2023-05-01T09:26:19.530Z,29.40
2023-05-01T09:27:19.521Z,29.43
2023-05-01T09:28:19.502Z,29.39
2023-05-01T09:29:19.490Z,29.37
2023-05-01T09:30:19.549Z,29.38
2023-05-01T09:31:19.534Z,29.41
2023-05-01T09:32:19.508Z,29.39
2023-05-01T09:33:19.594Z,29.35
2023-05-01T09:34:19.475Z,29.34
2023-05-01T09:35:19.509Z,29.39
2023-05-01T09:36:19.507Z,29.35
2023-05-01T09:37:19.508Z,29.32
2023-05-01T09:38:19.555Z,29.35
2023-05-01T09:39:19.548Z,29.32
2023-05-01T09:40:19.543Z,29.37
2023-05-01T09:41:19.562Z,29.35
2023-05-01T09:42:19.584Z,29.34
2023-05-01T09:43:19.616Z,29.30
2023-05-01T09:44:19.624Z,29.33
2023-05-01T09:45:19.645Z,29.33
2023-05-01T09:46:19.792Z,29.30
2023-05-01T09:47:19.784Z,29.30
2023-05-01T09:48:19.846Z,29.34
2023-05-01T09:49:19.921Z,29.37
2023-05-01T09:50:19.961Z,29.30
2023-05-01T09:51:19.962Z,29.31
2023-05-01T09:52:20.019Z,29.26
2023-05-01T09:53:20.068Z,29.33
2023-05-01T09:54:20.103Z,29.30
2023-05-01T09:55:20.141Z,29.30
2023-05-01T09:56:20.184Z,29.30
2023-05-01T09:57:20.172Z,29.33
2023-05-01T09:58:20.181Z,29.34
2023-05-01T09:59:20.255Z,29.31
2023-05-01T10:00:20.283Z,29.30
2023-05-01T10:01:20.422Z,29.32
2023-05-01T10:02:20.459Z,29.36
2023-05-01T10:03:20.576Z,29.34
2023-05-01T10:04:20.519Z,29.30
2023-05-01T10:05:20.578Z,29.34
2023-05-01T10:06:20.662Z,29.34
2023-05-01T10:07:20.699Z,29.39
2023-05-01T10:08:20.781Z,29.34
2023-05-01T10:09:20.797Z,29.32
2023-05-01T10:10:20.928Z,29.34
2023-05-01T10:11:20.891Z,29.33
2023-05-01T10:12:20.964Z,29.33
2023-05-01T10:13:21.000Z,29.30
2023-05-01T10:14:21.063Z,29.32
2023-05-01T10:15:26.109Z,29.30
2023-05-01T10:16:22.227Z,29.32
2023-05-01T10:17:21.247Z,29.36
2023-05-01T10:18:21.069Z,29.32
2023-05-01T10:19:21.195Z,29.32
2023-05-01T10:20:21.067Z,29.39
2023-05-01T10:21:21.020Z,29.36
2023-05-01T10:22:21.028Z,29.36
2023-05-01T10:23:21.127Z,29.33
2023-05-01T10:24:21.016Z,29.34
2023-05-01T10:25:21.010Z,29.34
2023-05-01T10:26:21.010Z,29.36
2023-05-01T10:27:20.998Z,29.37
2023-05-01T10:28:21.048Z,29.33
2023-05-01T10:29:21.099Z,29.39
2023-05-01T10:30:21.191Z,29.38
2023-05-01T10:31:21.319Z,29.36
2023-05-01T10:32:21.302Z,29.39
2023-05-01T10:33:21.477Z,29.43
2023-05-01T10:34:21.400Z,29.42
2023-05-01T10:35:21.486Z,29.43
2023-05-01T10:36:21.467Z,29.42
2023-05-01T10:37:21.536Z,29.43
2023-05-01T10:38:21.568Z,29.39
2023-05-01T10:39:21.596Z,29.41
2023-05-01T10:40:21.637Z,29.42
2023-05-01T10:41:21.820Z,29.36
2023-05-01T10:42:21.722Z,29.37
2023-05-01T10:43:21.744Z,29.41
2023-05-01T10:44:21.852Z,29.41
2023-05-01T10:45:21.851Z,29.35
2023-05-01T10:46:22.053Z,29.42
2023-05-01T10:47:22.028Z,29.36
2023-05-01T10:48:22.068Z,29.35
2023-05-01T10:49:22.107Z,29.35
2023-05-01T10:50:22.155Z,29.37
2023-05-01T10:51:23.265Z,29.38
2023-05-01T10:52:22.161Z,29.35
2023-05-01T10:53:22.184Z,29.39
2023-05-01T10:54:22.182Z,29.32
2023-05-01T10:55:22.195Z,29.31
2023-05-01T10:56:22.159Z,29.41
2023-05-01T10:57:22.188Z,29.37
2023-05-01T10:58:22.143Z,29.34
2023-05-01T10:59:22.164Z,29.32
2023-05-01T11:00:22.130Z,29.35
2023-05-01T11:01:22.173Z,29.35
2023-05-01T11:02:22.210Z,29.39
2023-05-01T11:03:22.131Z,29.37
2023-05-01T11:04:22.191Z,29.32
2023-05-01T11:05:35.710Z,29.38
2023-05-01T11:06:23.258Z,29.41
2023-05-01T11:07:22.280Z,29.39
2023-05-01T11:08:22.073Z,29.34
2023-05-01T11:09:22.070Z,29.37
2023-05-01T11:10:22.084Z,29.35
2023-05-01T11:11:22.086Z,29.32
2023-05-01T11:12:22.073Z,29.29
2023-05-01T11:13:22.067Z,29.43
2023-05-01T11:14:22.107Z,29.35
2023-05-01T11:15:22.158Z,29.37
2023-05-01T11:16:22.287Z,29.35
2023-05-01T11:17:22.395Z,29.37
2023-05-01T11:18:22.398Z,29.35
2023-05-01T11:19:22.429Z,29.31
2023-05-01T11:20:22.529Z,29.31
2023-05-01T11:21:22.529Z,29.28
2023-05-01T11:22:22.596Z,29.34
2023-05-01T11:23:22.687Z,29.37
2023-05-01T11:24:22.721Z,29.34
2023-05-01T11:25:22.797Z,29.38
2023-05-01T11:26:22.854Z,29.39
2023-05-01T11:27:22.959Z,29.34
2023-05-01T11:28:23.001Z,29.38
2023-05-01T11:29:23.054Z,29.38
2023-05-01T11:30:23.115Z,29.40
2023-05-01T11:31:23.216Z,29.39
2023-05-01T11:32:23.277Z,29.33
2023-05-01T11:33:23.388Z,29.37
2023-05-01T11:34:23.330Z,29.35
2023-05-01T11:35:23.422Z,29.35
2023-05-01T11:36:23.470Z,29.39
2023-05-01T11:37:23.545Z,29.37
2023-05-01T11:38:23.599Z,29.35
2023-05-01T11:39:23.673Z,29.35
2023-05-01T11:40:23.743Z,29.33
2023-05-01T11:41:23.821Z,29.40
2023-05-01T11:42:23.868Z,29.34
2023-05-01T11:43:23.922Z,29.38
2023-05-01T11:44:23.953Z,29.37
2023-05-01T11:45:24.043Z,29.37
2023-05-01T11:46:24.134Z,29.41
2023-05-01T11:47:24.167Z,29.43
2023-05-01T11:48:24.231Z,29.43
2023-05-01T11:49:24.298Z,29.43
2023-05-01T11:50:24.318Z,29.44
2023-05-01T11:51:24.366Z,29.41
2023-05-01T11:52:24.452Z,29.43
2023-05-01T11:53:24.516Z,29.43
2023-05-01T11:54:24.585Z,29.43
2023-05-01T11:55:24.646Z,29.47
2023-05-01T11:56:26.979Z,29.47
2023-05-01T11:57:24.926Z,29.48
2023-05-01T11:58:24.980Z,29.47
2023-05-01T11:59:25.060Z,29.47
2023-05-01T12:00:25.113Z,29.48
2023-05-01T12:01:25.260Z,29.48
2023-05-01T12:02:25.350Z,29.49
2023-05-01T12:03:25.547Z,29.52
2023-05-01T12:04:25.390Z,29.58
2023-05-01T12:05:25.439Z,29.59
2023-05-01T12:06:25.572Z,29.53
2023-05-01T12:07:25.557Z,29.58
2023-05-01T12:08:25.641Z,29.55
2023-05-01T12:09:25.658Z,29.58
2023-05-01T12:10:25.746Z,29.56
2023-05-01T12:11:25.819Z,29.56
2023-05-01T12:12:25.887Z,29.59
2023-05-01T12:13:25.960Z,29.59
2023-05-01T12:14:25.965Z,29.55
2023-05-01T12:15:26.050Z,29.58
2023-05-01T12:16:26.140Z,29.59
2023-05-01T12:17:26.334Z,29.53
2023-05-01T12:18:26.267Z,29.59
2023-05-01T12:19:26.315Z,29.55
2023-05-01T12:20:26.390Z,29.58
2023-05-01T12:21:26.414Z,29.56
2023-05-01T12:22:26.500Z,29.56
2023-05-01T12:23:26.538Z,29.55
2023-05-01T12:24:26.587Z,29.58
2023-05-01T12:25:26.671Z,29.52
2023-05-01T12:26:26.815Z,29.61
2023-05-01T12:27:26.823Z,29.54
2023-05-01T12:28:26.906Z,29.58
2023-05-01T12:29:26.929Z,29.54
2023-05-01T12:30:27.000Z,29.50
2023-05-01T12:31:27.086Z,29.53
2023-05-01T12:32:27.071Z,29.54
2023-05-01T12:33:27.183Z,29.50
2023-05-01T12:34:27.191Z,29.46
2023-05-01T12:35:27.269Z,29.50
2023-05-01T12:36:27.475Z,29.51
2023-05-01T12:37:27.391Z,29.46
2023-05-01T12:38:27.461Z,29.43
2023-05-01T12:39:27.509Z,29.45
2023-05-01T12:40:27.553Z,29.46
2023-05-01T12:41:27.623Z,29.41
2023-05-01T12:42:27.662Z,29.39
2023-05-01T12:43:27.735Z,29.39
2023-05-01T12:44:27.812Z,29.41
2023-05-01T12:45:27.822Z,29.41
2023-05-01T12:46:27.945Z,29.34
2023-05-01T12:47:28.056Z,29.37
2023-05-01T12:48:28.059Z,29.38
2023-05-01T12:49:28.173Z,29.37
2023-05-01T12:50:28.109Z,29.34
2023-05-01T12:51:28.116Z,29.33
2023-05-01T12:52:28.213Z,29.30